sensor_id;sensor_type;location;lat;lon;timestamp;P1;durP1;ratioP1;P2;durP2;ratioP2
20324;SDS011;10320;49.482;11.256;2024-01-07T00:02:12;10.30;;;9.20;;
20324;SDS011;10320;49.482;11.256;2024-01-07T00:04:38;11.07;;;9.13;;
20324;SDS011;10320;49.482;11.256;2024-01-07T00:07:05;12.23;;;8.67;;
20324;SDS011;10320;49.482;11.256;2024-01-07T00:09:31;11.87;;;9.00;;
20324;SDS011;10320;49.482;11.256;2024-01-07T00:11:57;11.10;;;8.93;;
20324;SDS011;10320;49.482;11.256;2024-01-07T00:14:23;11.43;;;9.50;;
20324;SDS011;10320;49.482;11.256;2024-01-07T00:16:49;11.63;;;8.73;;
20324;SDS011;10320;49.482;11.256;2024-01-07T00:19:15;12.50;;;8.80;;
20324;SDS011;10320;49.482;11.256;2024-01-07T00:21:41;9.83;;;8.77;;
20324;SDS011;10320;49.482;11.256;2024-01-07T00:24:07;9.10;;;8.17;;
20324;SDS011;10320;49.482;11.256;2024-01-07T00:26:33;11.77;;;9.03;;
20324;SDS011;10320;49.482;11.256;2024-01-07T00:28:59;11.13;;;8.20;;
20324;SDS011;10320;49.482;11.256;2024-01-07T00:31:25;10.23;;;9.17;;
20324;SDS011;10320;49.482;11.256;2024-01-07T00:33:51;11.30;;;8.73;;
20324;SDS011;10320;49.482;11.256;2024-01-07T00:36:17;11.07;;;8.83;;
20324;SDS011;10320;49.482;11.256;2024-01-07T00:38:43;9.97;;;8.23;;
20324;SDS011;10320;49.482;11.256;2024-01-07T00:41:09;10.10;;;8.33;;
20324;SDS011;10320;49.482;11.256;2024-01-07T00:43:35;10.40;;;8.90;;
20324;SDS011;10320;49.482;11.256;2024-01-07T00:46:01;11.07;;;8.60;;
20324;SDS011;10320;49.482;11.256;2024-01-07T00:48:27;10.27;;;8.80;;
20324;SDS011;10320;49.482;11.256;2024-01-07T00:50:53;11.00;;;8.97;;
20324;SDS011;10320;49.482;11.256;2024-01-07T00:53:20;11.10;;;8.80;;
20324;SDS011;10320;49.482;11.256;2024-01-07T00:55:46;10.20;;;9.00;;
20324;SDS011;10320;49.482;11.256;2024-01-07T00:58:12;10.90;;;8.37;;
20324;SDS011;10320;49.482;11.256;2024-01-07T01:00:38;10.33;;;8.60;;
20324;SDS011;10320;49.482;11.256;2024-01-07T01:03:04;11.97;;;8.83;;
20324;SDS011;10320;49.482;11.256;2024-01-07T01:05:30;10.73;;;8.60;;
20324;SDS011;10320;49.482;11.256;2024-01-07T01:07:56;9.97;;;8.40;;
20324;SDS011;10320;49.482;11.256;2024-01-07T01:10:22;9.53;;;8.33;;
20324;SDS011;10320;49.482;11.256;2024-01-07T01:12:48;9.03;;;8.13;;
20324;SDS011;10320;49.482;11.256;2024-01-07T01:15:14;14.90;;;9.37;;
20324;SDS011;10320;49.482;11.256;2024-01-07T01:17:41;10.17;;;8.30;;
20324;SDS011;10320;49.482;11.256;2024-01-07T01:20:08;11.97;;;8.70;;
20324;SDS011;10320;49.482;11.256;2024-01-07T01:22:34;10.17;;;8.30;;
20324;SDS011;10320;49.482;11.256;2024-01-07T01:25:00;9.67;;;8.33;;
20324;SDS011;10320;49.482;11.256;2024-01-07T01:27:26;10.87;;;8.63;;
20324;SDS011;10320;49.482;11.256;2024-01-07T01:29:52;11.03;;;8.30;;
20324;SDS011;10320;49.482;11.256;2024-01-07T01:32:18;13.60;;;9.10;;
20324;SDS011;10320;49.482;11.256;2024-01-07T01:34:44;10.77;;;8.90;;
20324;SDS011;10320;49.482;11.256;2024-01-07T01:37:10;9.60;;;8.20;;
20324;SDS011;10320;49.482;11.256;2024-01-07T01:39:39;11.60;;;8.57;;
20324;SDS011;10320;49.482;11.256;2024-01-07T01:42:05;10.50;;;8.73;;
20324;SDS011;10320;49.482;11.256;2024-01-07T01:44:31;11.13;;;9.23;;
20324;SDS011;10320;49.482;11.256;2024-01-07T01:46:57;10.33;;;9.17;;
20324;SDS011;10320;49.482;11.256;2024-01-07T01:49:25;10.43;;;8.50;;
20324;SDS011;10320;49.482;11.256;2024-01-07T01:51:51;10.50;;;8.87;;
20324;SDS011;10320;49.482;11.256;2024-01-07T01:54:18;10.67;;;8.70;;
20324;SDS011;10320;49.482;11.256;2024-01-07T01:56:44;11.53;;;8.70;;
20324;SDS011;10320;49.482;11.256;2024-01-07T01:59:10;10.43;;;8.50;;
20324;SDS011;10320;49.482;11.256;2024-01-07T02:01:37;10.23;;;8.53;;
20324;SDS011;10320;49.482;11.256;2024-01-07T02:04:03;9.73;;;7.73;;
20324;SDS011;10320;49.482;11.256;2024-01-07T02:06:29;9.93;;;8.17;;
20324;SDS011;10320;49.482;11.256;2024-01-07T02:08:55;12.13;;;8.67;;
20324;SDS011;10320;49.482;11.256;2024-01-07T02:11:22;10.57;;;8.87;;
20324;SDS011;10320;49.482;11.256;2024-01-07T02:13:48;11.47;;;8.97;;
20324;SDS011;10320;49.482;11.256;2024-01-07T02:16:14;11.97;;;9.17;;
20324;SDS011;10320;49.482;11.256;2024-01-07T02:18:41;12.63;;;9.77;;
20324;SDS011;10320;49.482;11.256;2024-01-07T02:21:10;12.03;;;9.97;;
20324;SDS011;10320;49.482;11.256;2024-01-07T02:23:36;12.53;;;9.10;;
20324;SDS011;10320;49.482;11.256;2024-01-07T02:26:02;11.20;;;9.70;;
20324;SDS011;10320;49.482;11.256;2024-01-07T02:28:29;12.10;;;10.17;;
20324;SDS011;10320;49.482;11.256;2024-01-07T02:30:55;14.90;;;9.80;;
20324;SDS011;10320;49.482;11.256;2024-01-07T02:33:21;13.83;;;10.20;;
20324;SDS011;10320;49.482;11.256;2024-01-07T02:35:47;10.30;;;8.67;;
20324;SDS011;10320;49.482;11.256;2024-01-07T02:38:13;10.63;;;8.57;;
20324;SDS011;10320;49.482;11.256;2024-01-07T02:40:39;10.17;;;7.97;;
20324;SDS011;10320;49.482;11.256;2024-01-07T02:43:05;9.60;;;7.70;;
20324;SDS011;10320;49.482;11.256;2024-01-07T02:45:31;11.40;;;7.87;;
20324;SDS011;10320;49.482;11.256;2024-01-07T02:47:57;10.37;;;7.37;;
20324;SDS011;10320;49.482;11.256;2024-01-07T02:50:23;9.80;;;7.77;;
20324;SDS011;10320;49.482;11.256;2024-01-07T02:52:49;8.70;;;7.20;;
20324;SDS011;10320;49.482;11.256;2024-01-07T02:55:15;8.03;;;6.67;;
20324;SDS011;10320;49.482;11.256;2024-01-07T02:57:41;8.30;;;6.73;;
20324;SDS011;10320;49.482;11.256;2024-01-07T03:00:07;8.30;;;6.47;;
20324;SDS011;10320;49.482;11.256;2024-01-07T03:02:33;8.73;;;6.90;;
20324;SDS011;10320;49.482;11.256;2024-01-07T03:04:59;7.60;;;6.17;;
20324;SDS011;10320;49.482;11.256;2024-01-07T03:07:25;9.63;;;6.90;;
20324;SDS011;10320;49.482;11.256;2024-01-07T03:09:51;8.40;;;6.50;;
20324;SDS011;10320;49.482;11.256;2024-01-07T03:12:17;8.60;;;6.67;;
20324;SDS011;10320;49.482;11.256;2024-01-07T03:14:43;8.60;;;6.47;;
20324;SDS011;10320;49.482;11.256;2024-01-07T03:17:10;9.30;;;6.80;;
20324;SDS011;10320;49.482;11.256;2024-01-07T03:19:39;9.33;;;6.77;;
20324;SDS011;10320;49.482;11.256;2024-01-07T03:22:06;8.67;;;7.13;;
20324;SDS011;10320;49.482;11.256;2024-01-07T03:24:32;7.53;;;6.30;;
20324;SDS011;10320;49.482;11.256;2024-01-07T03:26:58;10.03;;;6.87;;
20324;SDS011;10320;49.482;11.256;2024-01-07T03:29:24;9.07;;;6.73;;
20324;SDS011;10320;49.482;11.256;2024-01-07T03:31:50;8.27;;;6.50;;
20324;SDS011;10320;49.482;11.256;2024-01-07T03:34:17;8.37;;;6.17;;
20324;SDS011;10320;49.482;11.256;2024-01-07T03:36:43;7.50;;;6.30;;
20324;SDS011;10320;49.482;11.256;2024-01-07T03:39:11;10.10;;;6.73;;
20324;SDS011;10320;49.482;11.256;2024-01-07T03:41:36;8.20;;;6.57;;
20324;SDS011;10320;49.482;11.256;2024-01-07T03:44:02;8.33;;;6.53;;
20324;SDS011;10320;49.482;11.256;2024-01-07T03:46:28;8.00;;;6.10;;
20324;SDS011;10320;49.482;11.256;2024-01-07T03:48:54;9.00;;;6.60;;
20324;SDS011;10320;49.482;11.256;2024-01-07T03:51:20;8.40;;;6.60;;
20324;SDS011;10320;49.482;11.256;2024-01-07T03:53:46;9.27;;;6.60;;
20324;SDS011;10320;49.482;11.256;2024-01-07T03:56:12;9.03;;;6.60;;
20324;SDS011;10320;49.482;11.256;2024-01-07T03:58:38;8.90;;;6.70;;
20324;SDS011;10320;49.482;11.256;2024-01-07T04:01:04;8.33;;;6.43;;
20324;SDS011;10320;49.482;11.256;2024-01-07T04:03:30;8.97;;;6.80;;
20324;SDS011;10320;49.482;11.256;2024-01-07T04:05:56;9.30;;;6.60;;
20324;SDS011;10320;49.482;11.256;2024-01-07T04:08:22;8.23;;;6.63;;
20324;SDS011;10320;49.482;11.256;2024-01-07T04:10:48;9.00;;;6.60;;
20324;SDS011;10320;49.482;11.256;2024-01-07T04:13:14;8.23;;;6.17;;
20324;SDS011;10320;49.482;11.256;2024-01-07T04:15:40;8.87;;;6.70;;
20324;SDS011;10320;49.482;11.256;2024-01-07T04:18:06;8.37;;;6.30;;
20324;SDS011;10320;49.482;11.256;2024-01-07T04:20:32;8.30;;;6.17;;
20324;SDS011;10320;49.482;11.256;2024-01-07T04:22:58;8.83;;;6.67;;
20324;SDS011;10320;49.482;11.256;2024-01-07T04:25:24;9.17;;;6.43;;
20324;SDS011;10320;49.482;11.256;2024-01-07T04:27:50;8.73;;;6.67;;
20324;SDS011;10320;49.482;11.256;2024-01-07T04:30:16;10.10;;;7.00;;
20324;SDS011;10320;49.482;11.256;2024-01-07T04:32:42;8.30;;;6.43;;
20324;SDS011;10320;49.482;11.256;2024-01-07T04:35:08;8.37;;;6.47;;
20324;SDS011;10320;49.482;11.256;2024-01-07T04:37:35;8.53;;;6.30;;
20324;SDS011;10320;49.482;11.256;2024-01-07T04:40:01;8.67;;;6.10;;
20324;SDS011;10320;49.482;11.256;2024-01-07T04:42:27;8.27;;;6.37;;
20324;SDS011;10320;49.482;11.256;2024-01-07T04:44:53;7.93;;;6.50;;
20324;SDS011;10320;49.482;11.256;2024-01-07T04:47:29;8.23;;;6.30;;
20324;SDS011;10320;49.482;11.256;2024-01-07T04:49:56;9.63;;;6.97;;
20324;SDS011;10320;49.482;11.256;2024-01-07T04:52:22;10.23;;;6.70;;
20324;SDS011;10320;49.482;11.256;2024-01-07T04:54:57;7.33;;;6.20;;
20324;SDS011;10320;49.482;11.256;2024-01-07T04:57:23;7.97;;;6.37;;
20324;SDS011;10320;49.482;11.256;2024-01-07T04:59:50;7.80;;;5.80;;
20324;SDS011;10320;49.482;11.256;2024-01-07T05:02:16;7.23;;;5.67;;
20324;SDS011;10320;49.482;11.256;2024-01-07T05:04:42;8.33;;;6.17;;
20324;SDS011;10320;49.482;11.256;2024-01-07T05:07:08;7.13;;;5.97;;
20324;SDS011;10320;49.482;11.256;2024-01-07T05:09:34;8.30;;;6.10;;
20324;SDS011;10320;49.482;11.256;2024-01-07T05:12:00;7.73;;;5.67;;
20324;SDS011;10320;49.482;11.256;2024-01-07T05:14:26;6.90;;;5.53;;
20324;SDS011;10320;49.482;11.256;2024-01-07T05:16:55;7.93;;;5.70;;
20324;SDS011;10320;49.482;11.256;2024-01-07T05:19:21;7.00;;;5.33;;
20324;SDS011;10320;49.482;11.256;2024-01-07T05:21:48;6.97;;;5.27;;
20324;SDS011;10320;49.482;11.256;2024-01-07T05:24:14;7.30;;;5.40;;
20324;SDS011;10320;49.482;11.256;2024-01-07T05:26:41;7.20;;;5.70;;
20324;SDS011;10320;49.482;11.256;2024-01-07T05:29:08;6.50;;;5.13;;
20324;SDS011;10320;49.482;11.256;2024-01-07T05:31:34;7.17;;;5.60;;
20324;SDS011;10320;49.482;11.256;2024-01-07T05:34:00;5.93;;;4.80;;
20324;SDS011;10320;49.482;11.256;2024-01-07T05:36:26;5.00;;;4.30;;
20324;SDS011;10320;49.482;11.256;2024-01-07T05:38:52;6.23;;;5.10;;
20324;SDS011;10320;49.482;11.256;2024-01-07T05:41:18;6.17;;;5.00;;
20324;SDS011;10320;49.482;11.256;2024-01-07T05:43:44;6.40;;;4.70;;
20324;SDS011;10320;49.482;11.256;2024-01-07T05:46:10;6.83;;;5.10;;
20324;SDS011;10320;49.482;11.256;2024-01-07T05:51:09;7.33;;;5.70;;
20324;SDS011;10320;49.482;11.256;2024-01-07T05:53:35;6.40;;;5.10;;
20324;SDS011;10320;49.482;11.256;2024-01-07T05:56:01;6.13;;;5.10;;
20324;SDS011;10320;49.482;11.256;2024-01-07T05:58:28;7.50;;;4.97;;
20324;SDS011;10320;49.482;11.256;2024-01-07T06:00:53;6.17;;;5.37;;
20324;SDS011;10320;49.482;11.256;2024-01-07T06:03:19;7.70;;;5.60;;
20324;SDS011;10320;49.482;11.256;2024-01-07T06:05:45;6.73;;;5.37;;
20324;SDS011;10320;49.482;11.256;2024-01-07T06:08:11;6.47;;;5.33;;
20324;SDS011;10320;49.482;11.256;2024-01-07T06:10:38;6.60;;;5.30;;
20324;SDS011;10320;49.482;11.256;2024-01-07T06:13:04;7.07;;;5.77;;
20324;SDS011;10320;49.482;11.256;2024-01-07T06:15:30;7.20;;;5.87;;
20324;SDS011;10320;49.482;11.256;2024-01-07T06:17:56;6.43;;;5.20;;
20324;SDS011;10320;49.482;11.256;2024-01-07T06:20:22;6.73;;;5.50;;
20324;SDS011;10320;49.482;11.256;2024-01-07T06:22:48;7.40;;;5.80;;
20324;SDS011;10320;49.482;11.256;2024-01-07T06:25:15;7.53;;;6.10;;
20324;SDS011;10320;49.482;11.256;2024-01-07T06:27:41;8.40;;;6.07;;
20324;SDS011;10320;49.482;11.256;2024-01-07T06:30:07;8.57;;;6.50;;
20324;SDS011;10320;49.482;11.256;2024-01-07T06:32:33;9.07;;;6.50;;
20324;SDS011;10320;49.482;11.256;2024-01-07T06:35:00;8.73;;;6.67;;
20324;SDS011;10320;49.482;11.256;2024-01-07T06:37:28;8.37;;;5.90;;
20324;SDS011;10320;49.482;11.256;2024-01-07T06:39:55;8.37;;;6.50;;
20324;SDS011;10320;49.482;11.256;2024-01-07T06:42:21;8.43;;;6.63;;
20324;SDS011;10320;49.482;11.256;2024-01-07T06:44:47;9.07;;;6.53;;
20324;SDS011;10320;49.482;11.256;2024-01-07T06:47:13;9.63;;;7.17;;
20324;SDS011;10320;49.482;11.256;2024-01-07T06:49:39;9.40;;;7.03;;
20324;SDS011;10320;49.482;11.256;2024-01-07T06:52:06;8.13;;;6.50;;
20324;SDS011;10320;49.482;11.256;2024-01-07T06:54:32;8.43;;;6.53;;
20324;SDS011;10320;49.482;11.256;2024-01-07T06:56:58;8.63;;;6.43;;
20324;SDS011;10320;49.482;11.256;2024-01-07T06:59:24;8.53;;;6.67;;
20324;SDS011;10320;49.482;11.256;2024-01-07T07:01:50;9.00;;;6.90;;
20324;SDS011;10320;49.482;11.256;2024-01-07T07:04:16;9.23;;;6.90;;
20324;SDS011;10320;49.482;11.256;2024-01-07T07:06:42;8.50;;;6.67;;
20324;SDS011;10320;49.482;11.256;2024-01-07T07:09:08;7.97;;;6.53;;
20324;SDS011;10320;49.482;11.256;2024-01-07T07:11:37;8.03;;;6.30;;
20324;SDS011;10320;49.482;11.256;2024-01-07T07:14:03;9.30;;;7.17;;
20324;SDS011;10320;49.482;11.256;2024-01-07T07:16:29;9.20;;;6.80;;
20324;SDS011;10320;49.482;11.256;2024-01-07T07:18:55;10.77;;;7.90;;
20324;SDS011;10320;49.482;11.256;2024-01-07T07:21:21;8.70;;;6.83;;
20324;SDS011;10320;49.482;11.256;2024-01-07T07:23:48;8.40;;;6.73;;
20324;SDS011;10320;49.482;11.256;2024-01-07T07:26:14;8.93;;;7.20;;
20324;SDS011;10320;49.482;11.256;2024-01-07T07:28:40;10.53;;;7.20;;
20324;SDS011;10320;49.482;11.256;2024-01-07T07:31:06;11.00;;;7.40;;
20324;SDS011;10320;49.482;11.256;2024-01-07T07:33:32;9.90;;;7.77;;
20324;SDS011;10320;49.482;11.256;2024-01-07T07:35:58;10.97;;;7.70;;
20324;SDS011;10320;49.482;11.256;2024-01-07T07:38:24;10.33;;;7.77;;
20324;SDS011;10320;49.482;11.256;2024-01-07T07:40:49;10.33;;;7.93;;
20324;SDS011;10320;49.482;11.256;2024-01-07T07:43:20;9.47;;;7.80;;
20324;SDS011;10320;49.482;11.256;2024-01-07T07:45:47;10.63;;;8.23;;
20324;SDS011;10320;49.482;11.256;2024-01-07T07:48:13;11.37;;;9.00;;
20324;SDS011;10320;49.482;11.256;2024-01-07T07:50:39;10.37;;;8.57;;
20324;SDS011;10320;49.482;11.256;2024-01-07T07:53:05;14.23;;;8.67;;
20324;SDS011;10320;49.482;11.256;2024-01-07T07:55:31;12.47;;;9.03;;
20324;SDS011;10320;49.482;11.256;2024-01-07T07:57:57;10.50;;;8.53;;
20324;SDS011;10320;49.482;11.256;2024-01-07T08:00:23;13.03;;;9.37;;
20324;SDS011;10320;49.482;11.256;2024-01-07T08:02:49;11.57;;;8.93;;
20324;SDS011;10320;49.482;11.256;2024-01-07T08:05:15;11.37;;;9.10;;
20324;SDS011;10320;49.482;11.256;2024-01-07T08:07:41;11.13;;;8.77;;
20324;SDS011;10320;49.482;11.256;2024-01-07T08:10:08;11.60;;;8.43;;
20324;SDS011;10320;49.482;11.256;2024-01-07T08:12:34;11.53;;;8.87;;
20324;SDS011;10320;49.482;11.256;2024-01-07T08:15:00;11.77;;;8.90;;
20324;SDS011;10320;49.482;11.256;2024-01-07T08:17:27;9.87;;;8.00;;
20324;SDS011;10320;49.482;11.256;2024-01-07T08:19:53;11.07;;;8.53;;
20324;SDS011;10320;49.482;11.256;2024-01-07T08:22:19;11.60;;;9.20;;
20324;SDS011;10320;49.482;11.256;2024-01-07T08:24:45;10.83;;;9.03;;
20324;SDS011;10320;49.482;11.256;2024-01-07T08:27:11;11.37;;;8.70;;
20324;SDS011;10320;49.482;11.256;2024-01-07T08:29:37;10.97;;;8.30;;
20324;SDS011;10320;49.482;11.256;2024-01-07T08:32:03;10.03;;;8.60;;
20324;SDS011;10320;49.482;11.256;2024-01-07T08:34:29;10.80;;;8.30;;
20324;SDS011;10320;49.482;11.256;2024-01-07T08:36:55;10.80;;;8.77;;
20324;SDS011;10320;49.482;11.256;2024-01-07T08:39:21;11.83;;;8.90;;
20324;SDS011;10320;49.482;11.256;2024-01-07T08:41:47;10.97;;;8.43;;
20324;SDS011;10320;49.482;11.256;2024-01-07T08:44:13;12.40;;;8.63;;
20324;SDS011;10320;49.482;11.256;2024-01-07T08:46:39;10.87;;;8.43;;
20324;SDS011;10320;49.482;11.256;2024-01-07T08:49:05;12.07;;;7.67;;
20324;SDS011;10320;49.482;11.256;2024-01-07T08:51:31;11.00;;;8.13;;
20324;SDS011;10320;49.482;11.256;2024-01-07T08:53:57;12.73;;;9.93;;
20324;SDS011;10320;49.482;11.256;2024-01-07T08:56:24;10.20;;;8.27;;
20324;SDS011;10320;49.482;11.256;2024-01-07T08:58:50;10.60;;;8.33;;
20324;SDS011;10320;49.482;11.256;2024-01-07T09:01:17;10.33;;;8.10;;
20324;SDS011;10320;49.482;11.256;2024-01-07T09:03:43;11.33;;;8.63;;
20324;SDS011;10320;49.482;11.256;2024-01-07T09:06:09;12.47;;;8.77;;
20324;SDS011;10320;49.482;11.256;2024-01-07T09:08:35;9.87;;;8.10;;
20324;SDS011;10320;49.482;11.256;2024-01-07T09:11:03;11.37;;;8.37;;
20324;SDS011;10320;49.482;11.256;2024-01-07T09:13:31;11.13;;;8.37;;
20324;SDS011;10320;49.482;11.256;2024-01-07T09:15:57;11.47;;;8.07;;
20324;SDS011;10320;49.482;11.256;2024-01-07T09:18:23;11.83;;;8.90;;
20324;SDS011;10320;49.482;11.256;2024-01-07T09:20:49;11.97;;;9.03;;
20324;SDS011;10320;49.482;11.256;2024-01-07T09:23:15;11.23;;;8.40;;
20324;SDS011;10320;49.482;11.256;2024-01-07T09:25:41;10.83;;;8.70;;
20324;SDS011;10320;49.482;11.256;2024-01-07T09:28:07;12.40;;;8.83;;
20324;SDS011;10320;49.482;11.256;2024-01-07T09:30:33;12.70;;;8.23;;
20324;SDS011;10320;49.482;11.256;2024-01-07T09:32:59;10.93;;;8.20;;
20324;SDS011;10320;49.482;11.256;2024-01-07T09:35:25;11.77;;;8.83;;
20324;SDS011;10320;49.482;11.256;2024-01-07T09:37:51;11.83;;;9.00;;
20324;SDS011;10320;49.482;11.256;2024-01-07T09:40:17;12.00;;;8.90;;
20324;SDS011;10320;49.482;11.256;2024-01-07T09:42:44;15.00;;;9.93;;
20324;SDS011;10320;49.482;11.256;2024-01-07T09:45:10;11.67;;;8.80;;
20324;SDS011;10320;49.482;11.256;2024-01-07T09:47:37;12.73;;;9.40;;
20324;SDS011;10320;49.482;11.256;2024-01-07T09:50:05;10.87;;;8.70;;
20324;SDS011;10320;49.482;11.256;2024-01-07T09:52:32;13.63;;;9.60;;
20324;SDS011;10320;49.482;11.256;2024-01-07T09:55:00;12.13;;;9.30;;
20324;SDS011;10320;49.482;11.256;2024-01-07T09:57:28;13.73;;;10.03;;
20324;SDS011;10320;49.482;11.256;2024-01-07T09:59:55;13.13;;;9.37;;
20324;SDS011;10320;49.482;11.256;2024-01-07T10:02:21;12.60;;;9.10;;
20324;SDS011;10320;49.482;11.256;2024-01-07T10:04:48;13.77;;;9.70;;
20324;SDS011;10320;49.482;11.256;2024-01-07T10:07:15;12.70;;;9.40;;
20324;SDS011;10320;49.482;11.256;2024-01-07T10:09:41;13.67;;;9.63;;
20324;SDS011;10320;49.482;11.256;2024-01-07T10:12:10;14.07;;;9.30;;
20324;SDS011;10320;49.482;11.256;2024-01-07T10:14:37;12.43;;;9.67;;
20324;SDS011;10320;49.482;11.256;2024-01-07T10:17:14;11.10;;;9.27;;
20324;SDS011;10320;49.482;11.256;2024-01-07T10:19:41;12.93;;;9.63;;
20324;SDS011;10320;49.482;11.256;2024-01-07T10:22:08;14.23;;;8.67;;
20324;SDS011;10320;49.482;11.256;2024-01-07T10:24:35;14.37;;;10.10;;
20324;SDS011;10320;49.482;11.256;2024-01-07T10:27:05;12.10;;;9.37;;
20324;SDS011;10320;49.482;11.256;2024-01-07T10:29:31;13.30;;;9.13;;
20324;SDS011;10320;49.482;11.256;2024-01-07T10:32:00;13.77;;;9.73;;
20324;SDS011;10320;49.482;11.256;2024-01-07T10:34:29;12.73;;;10.10;;
20324;SDS011;10320;49.482;11.256;2024-01-07T10:36:55;11.70;;;9.53;;
20324;SDS011;10320;49.482;11.256;2024-01-07T10:39:22;12.40;;;8.80;;
20324;SDS011;10320;49.482;11.256;2024-01-07T10:41:49;14.07;;;10.20;;
20324;SDS011;10320;49.482;11.256;2024-01-07T10:44:17;14.63;;;9.93;;
20324;SDS011;10320;49.482;11.256;2024-01-07T10:46:43;14.63;;;10.47;;
20324;SDS011;10320;49.482;11.256;2024-01-07T10:49:19;11.73;;;8.73;;
20324;SDS011;10320;49.482;11.256;2024-01-07T10:52:04;13.27;;;9.47;;
20324;SDS011;10320;49.482;11.256;2024-01-07T10:54:31;12.87;;;9.00;;
20324;SDS011;10320;49.482;11.256;2024-01-07T10:56:59;13.10;;;9.17;;
20324;SDS011;10320;49.482;11.256;2024-01-07T10:59:28;12.90;;;9.70;;
20324;SDS011;10320;49.482;11.256;2024-01-07T11:01:55;12.33;;;8.90;;
20324;SDS011;10320;49.482;11.256;2024-01-07T11:09:53;15.30;;;9.97;;
20324;SDS011;10320;49.482;11.256;2024-01-07T11:12:20;12.53;;;8.80;;
20324;SDS011;10320;49.482;11.256;2024-01-07T11:14:46;12.13;;;9.03;;
20324;SDS011;10320;49.482;11.256;2024-01-07T11:20:16;10.80;;;8.73;;
20324;SDS011;10320;49.482;11.256;2024-01-07T11:22:44;13.00;;;9.17;;
20324;SDS011;10320;49.482;11.256;2024-01-07T11:25:28;12.27;;;9.90;;
20324;SDS011;10320;49.482;11.256;2024-01-07T11:27:55;11.17;;;8.37;;
20324;SDS011;10320;49.482;11.256;2024-01-07T11:30:22;11.87;;;8.97;;
20324;SDS011;10320;49.482;11.256;2024-01-07T11:32:48;12.47;;;9.57;;
20324;SDS011;10320;49.482;11.256;2024-01-07T11:35:49;11.77;;;8.67;;
20324;SDS011;10320;49.482;11.256;2024-01-07T11:38:08;12.73;;;9.63;;
20324;SDS011;10320;49.482;11.256;2024-01-07T11:40:34;12.80;;;9.27;;
20324;SDS011;10320;49.482;11.256;2024-01-07T11:43:00;10.67;;;8.90;;
20324;SDS011;10320;49.482;11.256;2024-01-07T11:45:26;12.10;;;8.83;;
20324;SDS011;10320;49.482;11.256;2024-01-07T11:47:52;12.00;;;8.97;;
20324;SDS011;10320;49.482;11.256;2024-01-07T11:50:18;13.47;;;8.83;;
20324;SDS011;10320;49.482;11.256;2024-01-07T11:52:44;11.77;;;7.67;;
20324;SDS011;10320;49.482;11.256;2024-01-07T11:55:10;11.47;;;8.27;;
20324;SDS011;10320;49.482;11.256;2024-01-07T11:57:37;11.53;;;8.57;;
20324;SDS011;10320;49.482;11.256;2024-01-07T12:00:03;12.03;;;8.00;;
20324;SDS011;10320;49.482;11.256;2024-01-07T12:02:30;11.17;;;8.23;;
20324;SDS011;10320;49.482;11.256;2024-01-07T12:04:57;9.67;;;6.80;;
20324;SDS011;10320;49.482;11.256;2024-01-07T12:07:23;9.43;;;7.20;;
20324;SDS011;10320;49.482;11.256;2024-01-07T12:09:55;10.83;;;7.73;;
20324;SDS011;10320;49.482;11.256;2024-01-07T12:12:21;10.20;;;6.93;;
20324;SDS011;10320;49.482;11.256;2024-01-07T12:14:47;7.87;;;5.67;;
20324;SDS011;10320;49.482;11.256;2024-01-07T12:17:13;9.53;;;7.10;;
20324;SDS011;10320;49.482;11.256;2024-01-07T12:19:39;11.13;;;7.23;;
20324;SDS011;10320;49.482;11.256;2024-01-07T12:22:05;9.30;;;6.63;;
20324;SDS011;10320;49.482;11.256;2024-01-07T12:24:31;10.13;;;7.33;;
20324;SDS011;10320;49.482;11.256;2024-01-07T12:27:03;9.07;;;7.30;;
20324;SDS011;10320;49.482;11.256;2024-01-07T12:29:29;9.30;;;7.30;;
20324;SDS011;10320;49.482;11.256;2024-01-07T12:31:55;9.33;;;6.50;;
20324;SDS011;10320;49.482;11.256;2024-01-07T12:34:21;10.00;;;7.60;;
20324;SDS011;10320;49.482;11.256;2024-01-07T12:36:53;8.77;;;6.60;;
20324;SDS011;10320;49.482;11.256;2024-01-07T12:39:20;9.20;;;6.77;;
20324;SDS011;10320;49.482;11.256;2024-01-07T12:41:46;8.23;;;6.20;;
20324;SDS011;10320;49.482;11.256;2024-01-07T12:44:12;9.10;;;6.90;;
20324;SDS011;10320;49.482;11.256;2024-01-07T12:46:38;8.10;;;6.40;;
20324;SDS011;10320;49.482;11.256;2024-01-07T12:49:04;10.23;;;7.00;;
20324;SDS011;10320;49.482;11.256;2024-01-07T12:51:30;9.40;;;7.33;;
20324;SDS011;10320;49.482;11.256;2024-01-07T12:53:56;10.07;;;7.20;;
20324;SDS011;10320;49.482;11.256;2024-01-07T12:56:24;7.47;;;6.30;;
20324;SDS011;10320;49.482;11.256;2024-01-07T12:58:50;8.63;;;6.23;;
20324;SDS011;10320;49.482;11.256;2024-01-07T13:01:16;8.53;;;6.63;;
20324;SDS011;10320;49.482;11.256;2024-01-07T13:03:42;9.27;;;6.53;;
20324;SDS011;10320;49.482;11.256;2024-01-07T13:06:08;8.33;;;6.00;;
20324;SDS011;10320;49.482;11.256;2024-01-07T13:08:34;9.77;;;7.37;;
20324;SDS011;10320;49.482;11.256;2024-01-07T13:11:00;8.97;;;6.30;;
20324;SDS011;10320;49.482;11.256;2024-01-07T13:13:27;9.37;;;6.80;;
20324;SDS011;10320;49.482;11.256;2024-01-07T13:15:53;10.60;;;6.50;;
20324;SDS011;10320;49.482;11.256;2024-01-07T13:18:19;10.07;;;7.30;;
20324;SDS011;10320;49.482;11.256;2024-01-07T13:20:45;10.17;;;6.80;;
20324;SDS011;10320;49.482;11.256;2024-01-07T13:23:11;9.07;;;6.80;;
20324;SDS011;10320;49.482;11.256;2024-01-07T13:25:37;9.30;;;6.43;;
20324;SDS011;10320;49.482;11.256;2024-01-07T13:28:04;7.97;;;6.17;;
20324;SDS011;10320;49.482;11.256;2024-01-07T13:30:30;7.67;;;6.17;;
20324;SDS011;10320;49.482;11.256;2024-01-07T13:32:56;8.80;;;6.27;;
20324;SDS011;10320;49.482;11.256;2024-01-07T13:35:23;7.77;;;6.03;;
20324;SDS011;10320;49.482;11.256;2024-01-07T13:37:49;8.07;;;5.83;;
20324;SDS011;10320;49.482;11.256;2024-01-07T13:40:17;7.67;;;5.93;;
20324;SDS011;10320;49.482;11.256;2024-01-07T13:42:43;7.37;;;5.57;;
20324;SDS011;10320;49.482;11.256;2024-01-07T13:45:09;7.43;;;5.73;;
20324;SDS011;10320;49.482;11.256;2024-01-07T13:47:36;6.90;;;5.70;;
20324;SDS011;10320;49.482;11.256;2024-01-07T13:50:02;6.40;;;4.90;;
20324;SDS011;10320;49.482;11.256;2024-01-07T13:52:28;9.27;;;7.20;;
20324;SDS011;10320;49.482;11.256;2024-01-07T13:54:55;6.77;;;5.70;;
20324;SDS011;10320;49.482;11.256;2024-01-07T13:57:22;9.13;;;5.60;;
20324;SDS011;10320;49.482;11.256;2024-01-07T13:59:48;7.27;;;5.70;;
20324;SDS011;10320;49.482;11.256;2024-01-07T14:02:14;7.00;;;5.73;;
20324;SDS011;10320;49.482;11.256;2024-01-07T14:04:44;6.73;;;5.63;;
20324;SDS011;10320;49.482;11.256;2024-01-07T14:07:10;6.10;;;5.37;;
20324;SDS011;10320;49.482;11.256;2024-01-07T14:09:36;6.07;;;5.00;;
20324;SDS011;10320;49.482;11.256;2024-01-07T14:12:02;7.07;;;4.87;;
20324;SDS011;10320;49.482;11.256;2024-01-07T14:14:28;7.60;;;5.40;;
20324;SDS011;10320;49.482;11.256;2024-01-07T14:16:54;6.73;;;5.33;;
20324;SDS011;10320;49.482;11.256;2024-01-07T14:19:20;5.83;;;5.23;;
20324;SDS011;10320;49.482;11.256;2024-01-07T14:21:47;7.43;;;5.30;;
20324;SDS011;10320;49.482;11.256;2024-01-07T14:24:13;6.50;;;4.80;;
20324;SDS011;10320;49.482;11.256;2024-01-07T14:26:39;5.90;;;5.27;;
20324;SDS011;10320;49.482;11.256;2024-01-07T14:29:05;6.87;;;5.30;;
20324;SDS011;10320;49.482;11.256;2024-01-07T14:31:31;7.13;;;5.30;;
20324;SDS011;10320;49.482;11.256;2024-01-07T14:33:57;5.90;;;5.30;;
20324;SDS011;10320;49.482;11.256;2024-01-07T14:36:23;6.00;;;5.20;;